高雄終端管制區 - 高雄雷達席

METAR RCKH 201900Z 07004KT 9999 FEW013 BKN020 24/22 Q1012 NOSIG RMK A2990(E)=

站台狀態:Online
最後更新:2019-03-21 03:00:02